EDT,Max TemperatureF,Mean TemperatureF,Min TemperatureF,Max Dew PointF,MeanDew PointF,Min DewpointF,Max Humidity, Mean Humidity, Min Humidity, Max Sea Level PressureIn, Mean Sea Level PressureIn, Min Sea Level PressureIn, Max VisibilityMiles, Mean VisibilityMiles, Min VisibilityMiles, Max Wind SpeedMPH, Mean Wind SpeedMPH, Max Gust SpeedMPH,PrecipitationIn, CloudCover, Events, WindDirDegrees
2013-4-1,43,35,24,28,16,10,76,49,28,30.16,30.01,29.79,10,10,10,18,11,26,0.00,4,,311
2013-4-2,45,32,21,19,12,7,71,46,23,30.30,30.22,30.16,10,10,10,14,4,23,0.00,1,,290
2013-4-3,46,32,19,20,11,4,71,43,19,30.44,30.38,30.29,10,10,10,17,5,22,0.00,0,,10
2013-4-4,57,41,25,19,15,13,69,42,18,30.37,30.17,29.97,10,10,10,8,3,,0.00,0,,195
2013-4-5,55,42,32,31,21,10,66,45,18,30.20,30.09,29.96,10,10,10,15,5,20,0.00,1,,14
2013-4-6,61,46,32,32,23,13,69,41,26,30.25,30.08,29.80,10,10,10,18,9,28,0.00,2,,144
2013-4-7,64,57,46,45,39,33,69,52,38,30.01,29.86,29.69,10,10,9,17,13,30,0.01,3,Rain,268
2013-4-8,73,56,39,54,43,32,79,64,44,30.02,29.89,29.75,10,9,6,24,9,37,0.01,4,Rain,127
2013-4-9,82,65,48,58,48,41,77,61,38,30.06,29.97,29.83,10,10,10,25,6,31,0.00,6,,131
2013-4-10,52,48,44,47,45,41,93,89,77,29.95,29.89,29.83,9,4,1,22,9,28,0.67,8,Rain-Thunderstorm,51
2013-4-11,44,42,39,41,38,37,93,89,81,29.91,29.81,29.60,10,6,2,21,13,32,0.79,8,Rain-Thunderstorm,70
2013-4-12,43,41,39,38,35,30,93,81,65,29.86,29.68,29.55,10,9,2,14,8,25,0.11,8,Rain,248
2013-4-13,43,40,37,36,32,27,87,74,55,30.02,29.92,29.86,10,10,6,15,9,25,0.03,8,Rain,242
2013-4-14,55,46,37,43,37,32,86,74,59,30.11,30.02,29.91,10,10,10,14,6,22,0.00,4,,95
2013-4-15,71,53,37,53,46,34,93,69,53,29.96,29.92,29.88,10,9,5,17,7,25,0.00,2,,180
2013-4-16,63,56,48,52,47,40,94,80,55,30.22,30.05,29.89,10,9,2,15,7,23,0.48,7,Rain-Thunderstorm,315
2013-4-17,57,50,46,43,38,35,80,63,57,30.29,30.19,30.02,10,10,10,17,9,25,0.01,7,Rain,62
2013-4-18,78,62,46,63,56,37,94,81,56,29.98,29.73,29.60,10,7,1,25,11,50,1.00,6,Rain-Thunderstorm,208
2013-4-19,61,49,37,57,37,28,94,77,60,29.86,29.61,29.43,10,9,4,22,11,40,0.29,8,Rain,241
2013-4-20,45,38,32,30,25,17,87,63,41,30.47,30.14,29.85,10,9,2,15,9,32,0.00,5,Snow,280
2013-4-21,51,39,27,31,26,20,81,61,39,30.61,30.53,30.47,10,10,10,14,5,21,0.00,0,,98
2013-4-22,64,47,30,36,31,27,89,56,29,30.45,30.31,30.17,10,10,7,12,5,18,0.00,0,,100
2013-4-23,71,55,39,55,45,34,93,67,39,30.17,29.99,29.79,10,8,2,20,7,36,0.41,3,Rain,181
2013-4-24,57,47,35,54,37,26,94,84,51,30.20,29.91,29.76,10,8,3,15,9,23,0.48,7,Rain,310
2013-4-25,53,43,34,37,32,26,85,66,44,30.39,30.23,30.17,10,10,5,15,8,41,0.01,3,Rain,243
2013-4-26,60,44,30,34,32,28,92,59,36,30.48,30.42,30.36,10,10,5,10,3,,0.00,0,,184
2013-4-27,69,52,36,39,35,32,89,51,25,30.37,30.25,30.09,10,10,9,10,3,17,0.00,1,,137
2013-4-28,60,56,51,57,53,40,94,86,59,30.08,29.88,29.83,10,7,2,8,5,,0.25,8,Rain,160
2013-4-29,70,62,55,55,54,52,97,80,57,29.96,29.92,29.86,10,8,2,12,2,,0.00,6,,225
2013-4-30,77,65,53,56,53,50,89,67,45,30.05,30.00,29.96,10,9,4,14,7,22,0.00,1,,163